createdAt,value
2019-05-22T00:03:58.232Z,26.40
2019-05-22T00:09:00.714Z,28.43
2019-05-22T00:14:03.206Z,26.60
2019-05-22T00:19:05.794Z,30.50
2019-05-22T00:24:08.321Z,30.00
2019-05-22T00:29:10.868Z,32.07
2019-05-22T00:34:13.327Z,29.70
2019-05-22T00:39:15.816Z,33.47
2019-05-22T00:44:18.301Z,35.17
2019-05-22T00:49:20.790Z,31.73
2019-05-22T00:54:29.051Z,35.77
2019-05-22T00:59:34.077Z,37.67
2019-05-22T01:04:36.579Z,36.23
2019-05-22T01:09:45.205Z,33.63
2019-05-22T01:14:47.628Z,35.73
2019-05-22T01:19:50.111Z,36.20
2019-05-22T01:24:52.605Z,39.40
2019-05-22T01:29:55.082Z,33.57
2019-05-22T01:34:57.567Z,33.63
2019-05-22T01:40:05.555Z,37.73
2019-05-22T01:45:08.792Z,40.07
2019-05-22T01:50:14.062Z,41.03
2019-05-22T01:55:16.551Z,36.13
2019-05-22T02:00:19.043Z,41.40
2019-05-22T02:05:21.580Z,42.37
2019-05-22T02:10:36.091Z,40.53
2019-05-22T02:15:38.579Z,39.47
2019-05-22T02:20:41.072Z,39.07
2019-05-22T02:25:43.598Z,36.47
2019-05-22T02:30:46.103Z,41.77
2019-05-22T02:35:48.569Z,39.23
2019-05-22T02:40:51.060Z,42.17
2019-05-22T02:45:53.562Z,41.53
2019-05-22T02:50:56.049Z,40.67
2019-05-22T02:55:58.556Z,37.43
2019-05-22T03:01:01.039Z,43.67
2019-05-22T03:06:03.538Z,42.47
2019-05-22T03:11:06.021Z,47.20
2019-05-22T03:16:08.525Z,42.50
2019-05-22T03:21:11.007Z,43.87
2019-05-22T03:26:13.725Z,45.93
2019-05-22T03:31:16.112Z,39.03
2019-05-22T03:36:18.481Z,43.40
2019-05-22T03:41:20.972Z,40.10
2019-05-22T03:46:29.611Z,42.17
2019-05-22T03:51:32.099Z,42.43
2019-05-22T03:56:34.644Z,43.60
2019-05-22T04:01:37.153Z,42.77
2019-05-22T04:06:39.690Z,43.00
2019-05-22T04:11:44.881Z,38.80
2019-05-22T04:16:47.380Z,38.83
2019-05-22T04:21:49.865Z,40.80
2019-05-22T04:26:52.354Z,53.40
2019-05-22T04:31:54.850Z,46.60
2019-05-22T04:36:57.380Z,42.60
2019-05-22T04:41:59.865Z,42.60
2019-05-22T04:47:02.354Z,42.47
2019-05-22T04:52:04.845Z,38.90
2019-05-22T04:57:07.335Z,36.13
2019-05-22T05:02:09.815Z,38.60
2019-05-22T05:07:12.311Z,39.50
2019-05-22T05:12:14.808Z,38.37
2019-05-22T05:17:17.290Z,38.20
2019-05-22T05:22:19.790Z,37.87
2019-05-22T05:27:22.291Z,36.73
2019-05-22T05:32:24.783Z,30.37
2019-05-22T05:37:27.275Z,32.53
2019-05-22T05:42:29.767Z,31.60
2019-05-22T05:47:32.268Z,28.73
2019-05-22T05:52:34.750Z,31.53
2019-05-22T05:57:40.098Z,31.13
2019-05-22T06:02:55.530Z,32.20
2019-05-22T06:07:45.083Z,31.77
2019-05-22T06:12:47.571Z,32.70
2019-05-22T06:18:24.262Z,32.33
2019-05-22T06:23:29.872Z,28.63
2019-05-22T06:28:35.452Z,26.63
2019-05-22T06:33:37.915Z,30.87
2019-05-22T06:38:55.865Z,26.90
2019-05-22T06:44:25.777Z,26.07
2019-05-22T06:49:31.366Z,23.80
2019-05-22T06:54:33.851Z,23.50
2019-05-22T06:59:36.335Z,26.50
2019-05-22T07:04:38.817Z,24.70
2019-05-22T07:09:41.323Z,24.77
2019-05-22T07:14:53.041Z,23.70
2019-05-22T07:19:55.524Z,22.73
2019-05-22T07:24:58.055Z,24.13
2019-05-22T07:30:00.551Z,26.43
2019-05-22T07:35:03.078Z,33.33
2019-05-22T07:40:05.574Z,30.17
2019-05-22T07:45:08.218Z,25.60
2019-05-22T07:50:10.705Z,25.97
2019-05-22T07:55:13.211Z,24.33
2019-05-22T08:00:15.700Z,25.47
2019-05-22T08:05:18.196Z,22.67
2019-05-22T08:10:20.691Z,23.03
2019-05-22T08:15:23.168Z,21.93
2019-05-22T08:20:25.653Z,21.73
2019-05-22T08:25:28.145Z,22.33
2019-05-22T08:30:30.660Z,23.70
2019-05-22T08:35:33.152Z,23.17
2019-05-22T08:40:35.778Z,22.40
2019-05-22T08:45:38.246Z,23.20
2019-05-22T08:50:40.734Z,22.57
2019-05-22T08:55:43.239Z,22.17
2019-05-22T09:00:45.722Z,22.50
2019-05-22T09:05:48.238Z,20.30
2019-05-22T09:10:50.697Z,20.40
2019-05-22T09:15:53.199Z,19.07
2019-05-22T09:20:55.695Z,20.23
2019-05-22T09:25:58.188Z,18.67
2019-05-22T09:31:00.700Z,18.80
2019-05-22T09:36:03.237Z,19.47
2019-05-22T09:41:05.731Z,17.03
2019-05-22T09:46:08.259Z,16.57
2019-05-22T09:51:10.726Z,15.97
2019-05-22T09:56:13.226Z,16.53
2019-05-22T10:01:15.740Z,15.80
2019-05-22T10:06:21.519Z,15.73
2019-05-22T10:11:20.773Z,16.13
2019-05-22T10:16:23.261Z,16.93
2019-05-22T10:21:25.730Z,16.83
2019-05-22T10:26:28.227Z,16.97
2019-05-22T10:31:30.711Z,17.27
2019-05-22T10:36:33.304Z,16.33
2019-05-22T10:41:35.690Z,16.40
2019-05-22T10:46:38.196Z,16.60
2019-05-22T10:51:40.678Z,16.17
2019-05-22T10:56:43.180Z,17.23
2019-05-22T11:01:45.675Z,16.73
2019-05-22T11:06:48.168Z,15.83
2019-05-22T11:11:50.652Z,15.13
2019-05-22T11:16:53.197Z,14.70
2019-05-22T11:21:57.096Z,14.93
2019-05-22T11:26:58.175Z,15.00
2019-05-22T11:32:00.663Z,14.30
2019-05-22T11:37:03.192Z,13.43
2019-05-22T11:42:05.844Z,14.13
2019-05-22T11:47:08.321Z,13.60
2019-05-22T11:52:10.819Z,13.87
2019-05-22T11:57:13.306Z,13.13
2019-05-22T12:02:15.807Z,13.17
2019-05-22T12:07:18.297Z,12.13
2019-05-22T12:12:20.875Z,11.90
2019-05-22T12:17:37.451Z,11.90
2019-05-22T12:22:25.877Z,12.00
2019-05-22T12:27:28.366Z,12.20
2019-05-22T12:32:30.895Z,13.53
2019-05-22T12:37:33.384Z,13.83
2019-05-22T12:42:35.897Z,14.40
2019-05-22T12:47:38.390Z,12.90
2019-05-22T12:52:40.869Z,12.60
2019-05-22T12:57:43.372Z,12.50
2019-05-22T13:02:45.866Z,11.97
2019-05-22T13:07:48.345Z,13.43
2019-05-22T13:12:51.170Z,13.57
2019-05-22T13:17:53.488Z,11.83
2019-05-22T13:22:56.002Z,11.57
2019-05-22T13:27:58.485Z,12.90
2019-05-22T13:33:00.981Z,13.20
2019-05-22T13:38:03.489Z,14.13
2019-05-22T13:43:05.974Z,16.17
2019-05-22T13:48:08.463Z,13.57
2019-05-22T13:53:10.928Z,13.03
2019-05-22T13:58:13.445Z,13.90
2019-05-22T14:03:15.926Z,12.87
2019-05-22T14:08:18.434Z,12.33
2019-05-22T14:13:20.921Z,13.10
2019-05-22T14:18:23.420Z,13.30
2019-05-22T14:23:25.922Z,14.57
2019-05-22T14:28:28.412Z,13.87
2019-05-22T14:33:30.905Z,15.47
2019-05-22T14:38:33.472Z,15.20
2019-05-22T14:43:35.919Z,15.10
2019-05-22T14:48:38.481Z,13.73
2019-05-22T14:53:40.971Z,16.13
2019-05-22T14:58:43.456Z,13.97
2019-05-22T15:03:45.948Z,16.07
2019-05-22T15:08:48.539Z,16.20
2019-05-22T15:13:50.972Z,15.03
2019-05-22T15:18:53.461Z,17.07
2019-05-22T15:23:55.971Z,17.13
2019-05-22T15:28:58.450Z,16.90
2019-05-22T15:34:00.953Z,16.27
2019-05-22T15:39:05.337Z,15.60
2019-05-22T15:44:06.092Z,16.40
2019-05-22T15:49:08.588Z,17.47
2019-05-22T15:54:11.074Z,15.57
2019-05-22T15:59:13.555Z,17.50
2019-05-22T16:04:16.254Z,16.67
2019-05-22T16:09:18.779Z,15.90
2019-05-22T16:14:21.278Z,14.80
2019-05-22T16:19:23.787Z,14.20
2019-05-22T16:24:26.271Z,13.90
2019-05-22T16:29:28.784Z,13.03
2019-05-22T16:34:31.258Z,13.73
2019-05-22T16:39:33.765Z,14.93
2019-05-22T16:44:36.261Z,13.37
2019-05-22T16:49:38.744Z,11.17
2019-05-22T16:54:41.250Z,11.30
2019-05-22T16:59:43.759Z,12.20
2019-05-22T17:04:46.255Z,12.70
2019-05-22T17:09:48.755Z,11.13
2019-05-22T17:14:51.261Z,12.33
2019-05-22T17:19:53.761Z,11.80
2019-05-22T17:24:56.307Z,12.90
2019-05-22T17:29:58.759Z,11.77
2019-05-22T17:35:01.461Z,13.37
2019-05-22T17:40:06.508Z,14.50
2019-05-22T17:45:09.010Z,14.10
2019-05-22T17:50:25.335Z,13.60
2019-05-22T17:55:14.018Z,14.33
2019-05-22T18:00:16.554Z,16.43
2019-05-22T18:05:19.055Z,16.60
2019-05-22T18:10:21.555Z,16.20
2019-05-22T18:15:24.039Z,15.70
2019-05-22T18:20:41.404Z,17.07
2019-05-22T18:25:29.047Z,15.70
2019-05-22T18:30:31.544Z,15.63
2019-05-22T18:35:34.022Z,16.33
2019-05-22T18:40:36.523Z,16.87
2019-05-22T18:45:39.004Z,16.53
2019-05-22T18:50:41.482Z,16.60
2019-05-22T18:55:44.000Z,17.30
2019-05-22T19:00:46.622Z,17.50
2019-05-22T19:05:49.156Z,17.37
2019-05-22T19:10:51.642Z,18.30
2019-05-22T19:15:54.134Z,19.17
2019-05-22T19:20:56.640Z,18.10
2019-05-22T19:25:59.161Z,17.97
2019-05-22T19:31:01.683Z,17.60
2019-05-22T19:36:04.167Z,17.97
2019-05-22T19:41:06.659Z,19.40
2019-05-22T19:46:09.151Z,20.33
2019-05-22T19:51:11.734Z,18.83
2019-05-22T19:56:14.240Z,18.93
2019-05-22T20:01:16.738Z,18.87
2019-05-22T20:06:19.251Z,18.30
2019-05-22T20:11:21.757Z,19.10
2019-05-22T20:16:24.231Z,19.63
2019-05-22T20:21:26.783Z,18.10
2019-05-22T20:26:29.254Z,19.30
2019-05-22T20:31:31.761Z,19.53
2019-05-22T20:36:34.323Z,20.73
2019-05-22T20:41:36.741Z,21.43
2019-05-22T20:46:39.235Z,21.73
2019-05-22T20:51:41.723Z,20.50
2019-05-22T20:56:44.280Z,21.20
2019-05-22T21:01:46.782Z,20.40
2019-05-22T21:06:55.270Z,19.50
2019-05-22T21:11:57.769Z,20.90
2019-05-22T21:17:00.473Z,20.60
2019-05-22T21:22:02.999Z,21.67
2019-05-22T21:27:05.476Z,21.77
2019-05-22T21:32:08.174Z,22.23
2019-05-22T21:37:10.599Z,22.83
2019-05-22T21:42:13.113Z,23.43
2019-05-22T21:47:15.597Z,24.10
2019-05-22T21:52:18.125Z,24.07
2019-05-22T21:57:20.642Z,24.33
2019-05-22T22:02:25.975Z,23.13
2019-05-22T22:07:28.477Z,24.00
2019-05-22T22:12:30.975Z,24.40
2019-05-22T22:17:33.515Z,22.83
2019-05-22T22:22:36.001Z,22.93
2019-05-22T22:27:38.491Z,22.63
2019-05-22T22:32:41.015Z,22.33
2019-05-22T22:37:43.487Z,21.70
2019-05-22T22:42:46.019Z,21.23
2019-05-22T22:47:48.521Z,20.73
2019-05-22T22:52:51.013Z,21.40
2019-05-22T22:57:53.515Z,22.40
2019-05-22T23:02:56.013Z,21.53
2019-05-22T23:07:58.594Z,21.50
2019-05-22T23:13:01.089Z,21.17
2019-05-22T23:18:03.582Z,21.07
2019-05-22T23:23:05.539Z,21.40
2019-05-22T23:28:08.090Z,20.17
2019-05-22T23:33:10.549Z,21.63
2019-05-22T23:38:13.052Z,20.23
2019-05-22T23:43:15.554Z,18.97
2019-05-22T23:48:18.059Z,19.63
2019-05-22T23:53:20.572Z,19.83
2019-05-22T23:58:23.098Z,18.13
